Time,TemperatureF,DewpointF,PressureIn,WindDirection,WindDirectionDegrees,WindSpeedMPH,WindSpeedGustMPH,Humidity,HourlyPrecipIn,Conditions,Clouds,dailyrainin,SoftwareType,DateUTC
2013-05-04 00:00:00,34.1,33.1,29.94,NNE,13,3.0,4.0,96,0.00,,,0.66,Wunderground v.1.15,2013-05-04 05:00:00,
2013-05-04 00:05:00,34.1,33.1,29.93,NNE,19,4.0,4.0,96,0.00,,,0.00,Wunderground v.1.15,2013-05-04 05:05:00,
2013-05-04 00:10:00,34.2,33.2,29.93,NNW,345,3.0,4.0,96,0.00,,,0.00,Wunderground v.1.15,2013-05-04 05:10:00,
2013-05-04 00:15:00,34.3,33.3,29.93,North,5,3.0,11.0,96,0.00,,,0.01,Wunderground v.1.15,2013-05-04 05:15:00,
2013-05-04 00:20:00,34.3,33.3,29.93,NNW,342,4.0,4.0,96,0.00,,,0.01,Wunderground v.1.15,2013-05-04 05:20:00,
2013-05-04 00:25:00,34.4,33.4,29.93,North,350,4.0,4.0,96,0.05,,,0.02,Wunderground v.1.15,2013-05-04 05:25:00,
2013-05-04 00:35:00,34.4,33.4,29.93,NE,42,4.0,10.0,96,0.05,,,0.02,Wunderground v.1.15,2013-05-04 05:35:00,
2013-05-04 00:40:00,34.5,33.5,29.93,NNW,345,4.0,4.0,96,0.04,,,0.02,Wunderground v.1.15,2013-05-04 05:40:00,
2013-05-04 00:45:00,34.5,33.5,29.92,NNE,27,4.0,4.0,96,0.00,,,0.03,Wunderground v.1.15,2013-05-04 05:45:00,
2013-05-04 00:50:00,34.5,33.5,29.92,NNE,24,4.0,4.0,96,0.07,,,0.04,Wunderground v.1.15,2013-05-04 05:50:00,
2013-05-04 00:55:00,34.6,33.6,29.92,NNW,334,3.0,5.0,96,0.07,,,0.04,Wunderground v.1.15,2013-05-04 05:55:00,
2013-05-04 01:00:00,34.6,33.6,29.92,North,355,2.0,4.0,96,0.06,,,0.04,Wunderground v.1.15,2013-05-04 06:00:00,
2013-05-04 01:05:00,34.7,33.7,29.92,North,350,3.0,4.0,96,0.04,,,0.05,Wunderground v.1.15,2013-05-04 06:05:00,
2013-05-04 01:10:00,34.7,33.7,29.92,NNE,22,3.0,3.0,96,0.04,,,0.05,Wunderground v.1.15,2013-05-04 06:10:00,
2013-05-04 01:20:00,34.8,34.0,29.92,NNE,21,2.0,3.0,97,0.06,,,0.06,Wunderground v.1.15,2013-05-04 06:20:00,
2013-05-04 01:25:00,34.9,34.1,29.92,NNW,337,3.0,6.0,97,0.06,,,0.07,Wunderground v.1.15,2013-05-04 06:25:00,
2013-05-04 01:30:00,34.9,34.1,29.91,NNE,14,4.0,4.0,97,0.09,,,0.08,Wunderground v.1.15,2013-05-04 06:30:00,
2013-05-04 01:35:00,35.0,34.2,29.92,North,5,3.0,4.0,97,0.12,,,0.09,Wunderground v.1.15,2013-05-04 06:35:00,
2013-05-04 01:40:00,35.0,34.2,29.92,NNE,24,2.0,2.0,97,0.12,,,0.10,Wunderground v.1.15,2013-05-04 06:40:00,
2013-05-04 01:50:00,35.0,34.2,29.91,ENE,57,3.0,3.0,97,0.07,,,0.11,Wunderground v.1.15,2013-05-04 06:50:00,
2013-05-04 01:55:00,35.0,34.2,29.91,NNW,348,3.0,3.0,97,0.07,,,0.11,Wunderground v.1.15,2013-05-04 06:55:00,
2013-05-04 02:05:00,35.1,34.3,29.91,NNW,330,2.0,5.0,97,0.07,,,0.12,Wunderground v.1.15,2013-05-04 07:05:00,
2013-05-04 02:10:00,35.1,34.3,29.91,NE,48,3.0,3.0,97,0.06,,,0.13,Wunderground v.1.15,2013-05-04 07:10:00,
2013-05-04 02:15:00,35.2,34.4,29.91,NE,49,2.0,3.0,97,0.11,,,0.14,Wunderground v.1.15,2013-05-04 07:15:00,
2013-05-04 02:20:00,35.2,34.4,29.91,NE,53,2.0,3.0,97,0.07,,,0.14,Wunderground v.1.15,2013-05-04 07:20:00,
2013-05-04 02:30:00,35.4,34.6,29.90,NE,37,3.0,3.0,97,0.04,,,0.15,Wunderground v.1.15,2013-05-04 07:30:00,
2013-05-04 02:35:00,35.4,34.6,29.90,NNE,33,3.0,5.0,97,0.04,,,0.15,Wunderground v.1.15,2013-05-04 07:35:00,
2013-05-04 02:40:00,35.5,34.7,29.90,NE,46,3.0,6.0,97,0.07,,,0.16,Wunderground v.1.15,2013-05-04 07:40:00,
2013-05-04 02:45:00,35.6,34.8,29.89,NE,38,3.0,6.0,97,0.07,,,0.17,Wunderground v.1.15,2013-05-04 07:45:00,
2013-05-04 02:50:00,35.7,34.9,29.89,NE,34,3.0,3.0,97,0.13,,,0.18,Wunderground v.1.15,2013-05-04 07:50:00,
2013-05-04 02:55:00,35.7,34.9,29.89,NE,42,1.0,3.0,97,0.09,,,0.18,Wunderground v.1.15,2013-05-04 07:55:00,
2013-05-04 03:00:00,35.9,35.1,29.89,NNE,26,0.0,5.0,97,0.07,,,0.19,Wunderground v.1.15,2013-05-04 08:00:00,
2013-05-04 03:05:00,36.0,35.2,29.89,NNE,19,1.0,5.0,97,0.08,,,0.20,Wunderground v.1.15,2013-05-04 08:05:00,
2013-05-04 03:15:00,36.2,35.4,29.89,ENE,60,3.0,10.0,97,0.06,,,0.20,Wunderground v.1.15,2013-05-04 08:15:00,
2013-05-04 03:25:00,36.2,35.4,29.89,NE,55,3.0,6.0,97,0.04,,,0.21,Wunderground v.1.15,2013-05-04 08:25:00,
2013-05-04 03:30:00,36.3,35.5,29.89,NNE,32,3.0,4.0,97,0.04,,,0.21,Wunderground v.1.15,2013-05-04 08:30:00,
2013-05-04 03:35:00,36.3,35.5,29.89,NE,40,3.0,4.0,97,0.06,,,0.22,Wunderground v.1.15,2013-05-04 08:35:00,
2013-05-04 03:40:00,36.4,35.6,29.89,North,360,4.0,4.0,97,0.06,,,0.22,Wunderground v.1.15,2013-05-04 08:40:00,
2013-05-04 03:45:00,36.4,35.6,29.88,NE,55,4.0,4.0,97,0.04,,,0.22,Wunderground v.1.15,2013-05-04 08:45:00,
2013-05-04 03:50:00,36.5,35.7,29.88,North,9,4.0,4.0,97,0.00,,,0.22,Wunderground v.1.15,2013-05-04 08:50:00,
2013-05-04 03:55:00,36.5,35.7,29.88,NE,51,3.0,4.0,97,0.00,,,0.23,Wunderground v.1.15,2013-05-04 08:55:00,
2013-05-04 04:00:00,36.5,35.7,29.88,NE,51,3.0,3.0,97,0.00,,,0.23,Wunderground v.1.15,2013-05-04 09:00:00,
2013-05-04 04:10:00,36.6,35.8,29.88,ENE,57,3.0,3.0,97,0.04,,,0.24,Wunderground v.1.15,2013-05-04 09:10:00,
2013-05-04 04:15:00,36.7,35.9,29.88,NNE,14,3.0,4.0,97,0.04,,,0.24,Wunderground v.1.15,2013-05-04 09:15:00,
2013-05-04 04:20:00,36.7,35.9,29.88,NE,43,4.0,4.0,97,0.04,,,0.24,Wunderground v.1.15,2013-05-04 09:20:00,
2013-05-04 04:30:00,36.9,36.1,29.89,ENE,59,4.0,4.0,97,0.00,,,0.24,Wunderground v.1.15,2013-05-04 09:30:00,
2013-05-04 04:35:00,37.0,36.2,29.89,NNE,13,4.0,4.0,97,0.00,,,0.25,Wunderground v.1.15,2013-05-04 09:35:00,
2013-05-04 04:40:00,37.1,36.3,29.89,NE,36,4.0,4.0,97,0.00,,,0.25,Wunderground v.1.15,2013-05-04 09:40:00,
2013-05-04 04:45:00,37.1,36.3,29.89,NE,56,4.0,4.0,97,0.00,,,0.25,Wunderground v.1.15,2013-05-04 09:45:00,
2013-05-04 04:50:00,37.3,36.5,29.89,NE,50,1.0,1.0,97,0.00,,,0.26,Wunderground v.1.15,2013-05-04 09:50:00,
2013-05-04 04:55:00,37.3,36.5,29.89,NE,44,1.0,3.0,97,0.00,,,0.26,Wunderground v.1.15,2013-05-04 09:55:00,
2013-05-04 05:05:00,37.5,36.7,29.89,NE,37,1.0,3.0,97,0.00,,,0.26,Wunderground v.1.15,2013-05-04 10:05:00,
2013-05-04 05:10:00,37.5,36.7,29.89,NE,49,0.0,0.0,97,0.00,,,0.26,Wunderground v.1.15,2013-05-04 10:10:00,
2013-05-04 05:20:00,37.7,36.9,29.89,NE,51,0.0,0.0,97,0.00,,,0.27,Wunderground v.1.15,2013-05-04 10:20:00,
2013-05-04 05:25:00,37.9,37.1,29.89,NNE,20,0.0,0.0,97,0.00,,,0.27,Wunderground v.1.15,2013-05-04 10:25:00,
2013-05-04 05:30:00,38.0,37.2,29.89,NE,51,0.0,0.0,97,0.00,,,0.27,Wunderground v.1.15,2013-05-04 10:30:00,
2013-05-04 05:40:00,38.2,37.7,29.89,NE,51,1.0,2.0,98,0.00,,,0.28,Wunderground v.1.15,2013-05-04 10:40:00,
2013-05-04 05:45:00,38.2,37.7,29.89,NE,38,3.0,3.0,98,0.00,,,0.28,Wunderground v.1.15,2013-05-04 10:45:00,
2013-05-04 05:50:00,38.3,37.5,29.90,NE,46,3.0,3.0,97,0.00,,,0.28,Wunderground v.1.15,2013-05-04 10:50:00,
2013-05-04 05:55:00,38.4,37.6,29.90,NE,44,1.0,3.0,97,0.00,,,0.29,Wunderground v.1.15,2013-05-04 10:55:00,
2013-05-04 06:00:00,38.5,37.7,29.90,NE,42,0.0,0.0,97,0.00,,,0.29,Wunderground v.1.15,2013-05-04 11:00:00,
2013-05-04 06:10:00,38.7,38.2,29.90,ENE,57,0.0,0.0,98,0.00,,,0.29,Wunderground v.1.15,2013-05-04 11:10:00,
2013-05-04 06:15:00,38.8,38.3,29.90,NE,43,0.0,0.0,98,0.04,,,0.30,Wunderground v.1.15,2013-05-04 11:15:00,
2013-05-04 06:20:00,39.1,38.6,29.90,ENE,63,1.0,5.0,98,0.04,,,0.30,Wunderground v.1.15,2013-05-04 11:20:00,
2013-05-04 06:25:00,39.2,38.7,29.90,NE,38,2.0,5.0,98,0.04,,,0.30,Wunderground v.1.15,2013-05-04 11:25:00,
2013-05-04 06:30:00,39.2,38.7,29.90,NE,38,1.0,1.0,98,0.00,,,0.30,Wunderground v.1.15,2013-05-04 11:30:00,
2013-05-04 06:35:00,39.4,38.9,29.90,NE,42,0.0,1.0,98,0.00,,,0.30,Wunderground v.1.15,2013-05-04 11:35:00,
2013-05-04 06:40:00,39.5,39.0,29.90,ENE,69,0.0,0.0,98,0.00,,,0.31,Wunderground v.1.15,2013-05-04 11:40:00,
2013-05-04 06:50:00,39.8,39.3,29.90,ENE,57,0.0,0.0,98,0.04,,,0.32,Wunderground v.1.15,2013-05-04 11:50:00,
2013-05-04 07:00:00,40.0,39.5,29.91,NNE,32,0.0,0.0,98,0.04,,,0.32,Wunderground v.1.15,2013-05-04 12:00:00,
2013-05-04 07:05:00,40.1,39.6,29.91,NNE,26,0.0,0.0,98,0.04,,,0.32,Wunderground v.1.15,2013-05-04 12:05:00,
2013-05-04 07:10:00,40.2,39.7,29.91,NNW,340,0.0,0.0,98,0.00,,,0.32,Wunderground v.1.15,2013-05-04 12:10:00,
2013-05-04 07:15:00,40.4,39.9,29.91,North,355,0.0,0.0,98,0.00,,,0.33,Wunderground v.1.15,2013-05-04 12:15:00,
2013-05-04 07:20:00,40.6,40.1,29.91,NE,36,0.0,0.0,98,0.00,,,0.33,Wunderground v.1.15,2013-05-04 12:20:00,
2013-05-04 07:25:00,40.7,40.2,29.91,NW,317,0.0,0.0,98,0.00,,,0.33,Wunderground v.1.15,2013-05-04 12:25:00,
2013-05-04 07:35:00,40.9,40.4,29.91,NE,36,0.0,0.0,98,0.05,,,0.34,Wunderground v.1.15,2013-05-04 12:35:00,
2013-05-04 07:40:00,41.0,40.5,29.91,NNW,340,0.0,0.0,98,0.05,,,0.34,Wunderground v.1.15,2013-05-04 12:40:00,
2013-05-04 07:50:00,41.2,40.7,29.91,NNE,25,0.0,0.0,98,0.00,,,0.34,Wunderground v.1.15,2013-05-04 12:50:00,
2013-05-04 07:55:00,41.3,40.8,29.91,NE,49,0.0,0.0,98,0.00,,,0.35,Wunderground v.1.15,2013-05-04 12:55:00,
2013-05-04 08:00:00,41.4,40.9,29.91,NNE,14,0.0,0.0,98,0.00,,,0.35,Wunderground v.1.15,2013-05-04 13:00:00,
2013-05-04 08:05:00,41.6,41.1,29.91,NE,48,0.0,0.0,98,0.00,,,0.35,Wunderground v.1.15,2013-05-04 13:05:00,
2013-05-04 08:10:00,41.7,41.2,29.92,NE,53,0.0,0.0,98,0.00,,,0.35,Wunderground v.1.15,2013-05-04 13:10:00,
2013-05-04 08:15:00,41.8,41.3,29.92,NNE,25,0.0,0.0,98,0.00,,,0.36,Wunderground v.1.15,2013-05-04 13:15:00,
2013-05-04 08:20:00,42.0,41.5,29.92,NNE,15,0.0,0.0,98,0.00,,,0.36,Wunderground v.1.15,2013-05-04 13:20:00,
2013-05-04 08:25:00,42.3,41.8,29.92,NNE,33,0.0,0.0,98,0.00,,,0.36,Wunderground v.1.15,2013-05-04 13:25:00,
2013-05-04 08:35:00,42.5,42.0,29.93,NE,38,0.0,0.0,98,0.00,,,0.36,Wunderground v.1.15,2013-05-04 13:35:00,
2013-05-04 08:40:00,42.6,42.1,29.93,NNE,18,0.0,0.0,98,0.00,,,0.36,Wunderground v.1.15,2013-05-04 13:40:00,
2013-05-04 08:45:00,42.8,42.3,29.93,NNE,24,0.0,0.0,98,0.00,,,0.36,Wunderground v.1.15,2013-05-04 13:45:00,
2013-05-04 08:50:00,42.8,42.3,29.93,NE,45,0.0,0.0,98,0.00,,,0.36,Wunderground v.1.15,2013-05-04 13:50:00,
2013-05-04 08:55:00,43.0,42.5,29.93,NE,51,0.0,0.0,98,0.00,,,0.36,Wunderground v.1.15,2013-05-04 13:55:00,
2013-05-04 09:00:00,43.1,42.6,29.94,ENE,76,0.0,0.0,98,0.00,,,0.36,Wunderground v.1.15,2013-05-04 14:00:00,
2013-05-04 09:10:00,43.4,42.9,29.94,NE,55,0.0,0.0,98,0.00,,,0.36,Wunderground v.1.15,2013-05-04 14:10:00,
2013-05-04 09:15:00,43.7,43.2,29.94,NE,38,0.0,0.0,98,0.00,,,0.36,Wunderground v.1.15,2013-05-04 14:15:00,
2013-05-04 09:20:00,43.9,43.4,29.94,NNE,32,0.0,0.0,98,0.00,,,0.36,Wunderground v.1.15,2013-05-04 14:20:00,
2013-05-04 09:25:00,44.1,43.6,29.95,North,360,0.0,0.0,98,0.00,,,0.36,Wunderground v.1.15,2013-05-04 14:25:00,
2013-05-04 09:30:00,44.2,43.7,29.95,NNE,32,0.0,0.0,98,0.00,,,0.36,Wunderground v.1.15,2013-05-04 14:30:00,
2013-05-04 09:35:00,44.4,43.9,29.95,NNE,33,0.0,0.0,98,0.00,,,0.36,Wunderground v.1.15,2013-05-04 14:35:00,
2013-05-04 09:40:00,44.5,44.0,29.95,NNE,33,0.0,0.0,98,0.00,,,0.36,Wunderground v.1.15,2013-05-04 14:40:00,
2013-05-04 09:45:00,44.5,44.0,29.95,NNE,33,0.0,0.0,98,0.00,,,0.36,Wunderground v.1.15,2013-05-04 14:45:00,
2013-05-04 09:55:00,44.5,44.0,29.95,ENE,61,0.0,0.0,98,0.00,,,0.36,Wunderground v.1.15,2013-05-04 14:55:00,
2013-05-04 10:00:00,44.6,44.1,29.96,ENE,60,0.0,0.0,98,0.00,,,0.36,Wunderground v.1.15,2013-05-04 15:00:00,
2013-05-04 10:05:00,44.7,44.2,29.96,NNE,15,0.0,0.0,98,0.00,,,0.36,Wunderground v.1.15,2013-05-04 15:05:00,
2013-05-04 10:10:00,44.8,44.3,29.97,ENE,59,0.0,0.0,98,0.00,,,0.36,Wunderground v.1.15,2013-05-04 15:10:00,
2013-05-04 10:15:00,44.8,44.3,29.97,NE,53,0.0,0.0,98,0.00,,,0.36,Wunderground v.1.15,2013-05-04 15:15:00,
2013-05-04 10:20:00,45.0,44.5,29.97,NE,52,0.0,0.0,98,0.00,,,0.36,Wunderground v.1.15,2013-05-04 15:20:00,
2013-05-04 10:25:00,45.1,44.6,29.97,NE,34,0.0,0.0,98,0.00,,,0.36,Wunderground v.1.15,2013-05-04 15:25:00,
2013-05-04 10:35:00,45.4,44.9,29.97,NE,42,0.0,0.0,98,0.00,,,0.36,Wunderground v.1.15,2013-05-04 15:35:00,
2013-05-04 10:40:00,45.6,45.1,29.97,ENE,71,0.0,0.0,98,0.00,,,0.36,Wunderground v.1.15,2013-05-04 15:40:00,
2013-05-04 10:50:00,45.9,45.4,29.97,NNE,32,0.0,0.0,98,0.00,,,0.36,Wunderground v.1.15,2013-05-04 15:50:00,
2013-05-04 10:55:00,46.3,45.8,29.97,ENE,69,0.0,0.0,98,0.00,,,0.36,Wunderground v.1.15,2013-05-04 15:55:00,
2013-05-04 11:00:00,46.5,46.0,29.97,NNW,333,0.0,0.0,98,0.00,,,0.36,Wunderground v.1.15,2013-05-04 16:00:00,
2013-05-04 11:05:00,46.8,46.5,29.98,NNW,336,0.0,0.0,99,0.00,,,0.36,Wunderground v.1.15,2013-05-04 16:05:00,
2013-05-04 11:10:00,47.0,46.5,29.98,NE,52,0.0,0.0,98,0.00,,,0.36,Wunderground v.1.15,2013-05-04 16:10:00,
2013-05-04 11:15:00,47.3,47.0,29.98,NNW,344,0.0,0.0,99,0.00,,,0.36,Wunderground v.1.15,2013-05-04 16:15:00,
2013-05-04 11:20:00,47.6,47.1,29.98,East,84,0.0,0.0,98,0.00,,,0.36,Wunderground v.1.15,2013-05-04 16:20:00,
2013-05-04 11:30:00,48.4,47.9,29.98,NE,41,0.0,0.0,98,0.00,,,0.36,Wunderground v.1.15,2013-05-04 16:30:00,
2013-05-04 11:35:00,48.7,48.4,29.98,North,360,0.0,0.0,99,0.00,,,0.36,Wunderground v.1.15,2013-05-04 16:35:00,
2013-05-04 11:40:00,48.9,48.6,29.98,North,360,0.0,0.0,99,0.00,,,0.36,Wunderground v.1.15,2013-05-04 16:40:00,
2013-05-04 11:45:00,49.2,48.9,29.98,North,355,0.0,0.0,99,0.00,,,0.36,Wunderground v.1.15,2013-05-04 16:45:00,
2013-05-04 11:50:00,49.6,49.3,29.98,NNW,348,0.0,0.0,99,0.00,,,0.36,Wunderground v.1.15,2013-05-04 16:50:00,
2013-05-04 11:55:00,50.0,49.7,29.98,NNW,332,0.0,0.0,99,0.00,,,0.36,Wunderground v.1.15,2013-05-04 16:55:00,
2013-05-04 12:00:00,50.3,50.0,29.98,North,360,0.0,0.0,99,0.00,,,0.36,Wunderground v.1.15,2013-05-04 17:00:00,
2013-05-04 12:05:00,50.5,50.2,29.98,NNW,336,0.0,0.0,99,0.00,,,0.36,Wunderground v.1.15,2013-05-04 17:05:00,
2013-05-04 12:15:00,51.0,50.7,29.98,North,355,1.0,1.0,99,0.00,,,0.36,Wunderground v.1.15,2013-05-04 17:15:00,
2013-05-04 12:20:00,51.4,51.1,29.98,NNW,347,1.0,1.0,99,0.00,,,0.36,Wunderground v.1.15,2013-05-04 17:20:00,
2013-05-04 12:25:00,51.5,51.2,29.98,North,360,1.0,1.0,99,0.00,,,0.36,Wunderground v.1.15,2013-05-04 17:25:00,
2013-05-04 12:30:00,51.4,51.1,29.97,NNE,22,0.0,0.0,99,0.00,,,0.36,Wunderground v.1.15,2013-05-04 17:30:00,
2013-05-04 12:35:00,51.6,51.3,29.98,NW,318,0.0,0.0,99,0.00,,,0.36,Wunderground v.1.15,2013-05-04 17:35:00,
2013-05-04 12:40:00,51.8,51.5,29.98,NNW,339,0.0,0.0,99,0.00,,,0.36,Wunderground v.1.15,2013-05-04 17:40:00,
2013-05-04 12:50:00,52.1,51.8,29.98,NNW,340,0.0,0.0,99,0.00,,,0.36,Wunderground v.1.15,2013-05-04 17:50:00,
2013-05-04 12:55:00,52.2,51.9,29.98,North,355,0.0,0.0,99,0.00,,,0.36,Wunderground v.1.15,2013-05-04 17:55:00,
2013-05-04 13:00:00,52.2,51.9,29.98,NNE,13,0.0,0.0,99,0.00,,,0.36,Wunderground v.1.15,2013-05-04 18:00:00,
2013-05-04 13:05:00,52.2,51.9,29.98,NNW,346,0.0,0.0,99,0.00,,,0.36,Wunderground v.1.15,2013-05-04 18:05:00,
2013-05-04 13:10:00,52.1,51.8,29.98,NNW,345,0.0,0.0,99,0.00,,,0.36,Wunderground v.1.15,2013-05-04 18:10:00,
2013-05-04 13:15:00,52.1,51.8,29.98,North,9,0.0,0.0,99,0.00,,,0.36,Wunderground v.1.15,2013-05-04 18:15:00,
2013-05-04 13:20:00,52.0,51.7,29.98,NNE,15,0.0,0.0,99,0.00,,,0.36,Wunderground v.1.15,2013-05-04 18:20:00,
2013-05-04 13:25:00,52.1,51.8,29.98,North,9,0.0,0.0,99,0.00,,,0.36,Wunderground v.1.15,2013-05-04 18:25:00,
2013-05-04 13:35:00,52.2,51.7,29.98,North,349,0.0,0.0,98,0.00,,,0.36,Wunderground v.1.15,2013-05-04 18:35:00,
2013-05-04 13:40:00,52.3,51.8,29.98,NE,42,0.0,0.0,98,0.00,,,0.36,Wunderground v.1.15,2013-05-04 18:40:00,
2013-05-04 13:45:00,52.1,51.6,29.98,NNW,338,0.0,2.0,98,0.00,,,0.36,Wunderground v.1.15,2013-05-04 18:45:00,
2013-05-04 13:50:00,51.8,51.3,29.98,NNW,342,0.0,0.0,98,0.00,,,0.36,Wunderground v.1.15,2013-05-04 18:50:00,
2013-05-04 13:55:00,51.7,51.2,29.98,NNW,333,0.0,1.0,98,0.00,,,0.36,Wunderground v.1.15,2013-05-04 18:55:00,
2013-05-04 14:00:00,51.5,51.0,29.98,NNW,347,0.0,0.0,98,0.00,,,0.36,Wunderground v.1.15,2013-05-04 19:00:00,
2013-05-04 14:05:00,51.3,50.8,29.98,NNW,338,1.0,1.0,98,0.00,,,0.36,Wunderground v.1.15,2013-05-04 19:05:00,
2013-05-04 14:10:00,51.2,50.7,29.98,North,350,1.0,1.0,98,0.00,,,0.36,Wunderground v.1.15,2013-05-04 19:10:00,
2013-05-04 14:20:00,51.1,50.6,29.98,NNW,327,0.0,0.0,98,0.00,,,0.37,Wunderground v.1.15,2013-05-04 19:20:00,
2013-05-04 14:30:00,51.3,50.8,29.98,NNW,331,0.0,0.0,98,0.08,,,0.38,Wunderground v.1.15,2013-05-04 19:30:00,
2013-05-04 14:35:00,51.6,51.1,29.98,NW,309,0.0,0.0,98,0.06,,,0.38,Wunderground v.1.15,2013-05-04 19:35:00,
2013-05-04 14:40:00,51.9,51.4,29.98,NNW,345,0.0,0.0,98,0.04,,,0.38,Wunderground v.1.15,2013-05-04 19:40:00,
2013-05-04 14:45:00,52.0,51.5,29.98,NNW,346,0.0,0.0,98,0.00,,,0.38,Wunderground v.1.15,2013-05-04 19:45:00,
2013-05-04 14:50:00,51.8,51.3,29.98,NNW,336,0.0,0.0,98,0.00,,,0.38,Wunderground v.1.15,2013-05-04 19:50:00,
2013-05-04 14:55:00,51.6,51.1,29.98,NNW,343,0.0,0.0,98,0.00,,,0.38,Wunderground v.1.15,2013-05-04 19:55:00,
2013-05-04 15:00:00,51.6,51.1,29.98,NNW,342,0.0,0.0,98,0.00,,,0.38,Wunderground v.1.15,2013-05-04 20:00:00,
2013-05-04 15:10:00,51.6,51.1,29.98,NNW,335,0.0,0.0,98,0.00,,,0.38,Wunderground v.1.15,2013-05-04 20:10:00,
2013-05-04 15:15:00,51.4,50.9,29.98,NNW,344,0.0,0.0,98,0.00,,,0.38,Wunderground v.1.15,2013-05-04 20:15:00,
2013-05-04 15:20:00,51.2,50.7,29.98,NNW,332,0.0,0.0,98,0.21,,,0.40,Wunderground v.1.15,2013-05-04 20:20:00,
2013-05-04 15:25:00,51.2,50.7,29.98,NNW,332,0.0,0.0,98,0.11,,,0.40,Wunderground v.1.15,2013-05-04 20:25:00,
2013-05-04 15:30:00,51.3,50.8,29.98,NNW,327,0.0,0.0,98,0.10,,,0.41,Wunderground v.1.15,2013-05-04 20:30:00,
2013-05-04 15:40:00,51.2,50.7,29.98,NW,304,0.0,0.0,98,0.38,,,0.45,Wunderground v.1.15,2013-05-04 20:40:00,
2013-05-04 15:50:00,51.3,50.8,29.98,WNW,302,0.0,0.0,98,0.09,,,0.47,Wunderground v.1.15,2013-05-04 20:50:00,
2013-05-04 15:55:00,51.4,50.9,29.98,NW,309,0.0,0.0,98,0.05,,,0.47,Wunderground v.1.15,2013-05-04 20:55:00,
2013-05-04 16:00:00,51.7,51.2,29.98,NW,310,0.0,0.0,98,0.00,,,0.47,Wunderground v.1.15,2013-05-04 21:00:00,
2013-05-04 16:05:00,51.9,51.4,29.97,NW,309,0.0,0.0,98,0.00,,,0.47,Wunderground v.1.15,2013-05-04 21:05:00,
2013-05-04 16:10:00,52.1,51.6,29.97,NW,309,0.0,0.0,98,0.00,,,0.47,Wunderground v.1.15,2013-05-04 21:10:00,
2013-05-04 16:15:00,52.2,51.7,29.97,NW,309,0.0,0.0,98,0.00,,,0.48,Wunderground v.1.15,2013-05-04 21:15:00,
2013-05-04 16:25:00,52.2,51.7,29.97,NW,309,0.0,0.0,98,0.00,,,0.48,Wunderground v.1.15,2013-05-04 21:25:00,
2013-05-04 16:30:00,52.3,51.8,29.98,NW,309,0.0,0.0,98,0.00,,,0.48,Wunderground v.1.15,2013-05-04 21:30:00,
2013-05-04 16:35:00,52.5,52.0,29.97,NW,309,0.0,0.0,98,0.00,,,0.48,Wunderground v.1.15,2013-05-04 21:35:00,
2013-05-04 16:40:00,52.6,52.1,29.97,WNW,298,1.0,2.0,98,0.00,,,0.48,Wunderground v.1.15,2013-05-04 21:40:00,
2013-05-04 16:45:00,52.7,52.2,29.97,WNW,303,1.0,2.0,98,0.00,,,0.48,Wunderground v.1.15,2013-05-04 21:45:00,
2013-05-04 16:50:00,52.7,52.2,29.97,WNW,294,1.0,1.0,98,0.00,,,0.48,Wunderground v.1.15,2013-05-04 21:50:00,
2013-05-04 16:55:00,52.8,52.3,29.97,WNW,297,1.0,1.0,98,0.00,,,0.48,Wunderground v.1.15,2013-05-04 21:55:00,
2013-05-04 17:00:00,52.9,52.4,29.97,NW,323,1.0,4.0,98,0.00,,,0.48,Wunderground v.1.15,2013-05-04 22:00:00,
2013-05-04 17:05:00,53.0,52.5,29.97,WNW,297,2.0,4.0,98,0.00,,,0.48,Wunderground v.1.15,2013-05-04 22:05:00,
2013-05-04 17:15:00,52.9,52.4,29.97,WNW,295,1.0,3.0,98,0.00,,,0.48,Wunderground v.1.15,2013-05-04 22:15:00,
2013-05-04 17:20:00,52.8,52.3,29.97,WNW,296,0.0,0.0,98,0.00,,,0.48,Wunderground v.1.15,2013-05-04 22:20:00,
2013-05-04 17:25:00,52.6,52.1,29.98,WNW,294,1.0,7.0,98,0.00,,,0.48,Wunderground v.1.15,2013-05-04 22:25:00,
2013-05-04 17:30:00,52.5,52.0,29.98,NW,319,2.0,3.0,98,0.00,,,0.48,Wunderground v.1.15,2013-05-04 22:30:00,
2013-05-04 17:35:00,52.3,51.8,29.98,WNW,302,1.0,3.0,98,0.00,,,0.48,Wunderground v.1.15,2013-05-04 22:35:00,
2013-05-04 17:45:00,52.1,51.6,29.98,WNW,290,1.0,1.0,98,0.00,,,0.48,Wunderground v.1.15,2013-05-04 22:45:00,
2013-05-04 17:50:00,52.1,51.6,29.98,NW,307,0.0,0.0,98,0.00,,,0.48,Wunderground v.1.15,2013-05-04 22:50:00,
2013-05-04 17:55:00,52.3,51.8,29.98,NNW,337,0.0,0.0,98,0.00,,,0.48,Wunderground v.1.15,2013-05-04 22:55:00,
2013-05-04 18:00:00,52.5,52.0,29.98,NNW,348,0.0,1.0,98,0.00,,,0.48,Wunderground v.1.15,2013-05-04 23:00:00,
2013-05-04 18:05:00,52.6,52.1,29.98,WNW,300,1.0,1.0,98,0.00,,,0.48,Wunderground v.1.15,2013-05-04 23:05:00,
2013-05-04 18:10:00,52.6,52.1,29.98,WNW,297,1.0,1.0,98,0.00,,,0.48,Wunderground v.1.15,2013-05-04 23:10:00,
2013-05-04 18:15:00,52.6,52.1,29.98,WNW,295,1.0,7.0,98,0.00,,,0.48,Wunderground v.1.15,2013-05-04 23:15:00,
2013-05-04 18:25:00,52.3,51.8,29.99,NW,308,2.0,2.0,98,0.00,,,0.48,Wunderground v.1.15,2013-05-04 23:25:00,
2013-05-04 18:30:00,52.1,51.6,29.99,NNW,340,1.0,1.0,98,0.00,,,0.48,Wunderground v.1.15,2013-05-04 23:30:00,
2013-05-04 18:35:00,52.0,51.5,29.98,NNW,335,1.0,3.0,98,0.00,,,0.48,Wunderground v.1.15,2013-05-04 23:35:00,
2013-05-04 18:40:00,51.9,51.4,29.98,WNW,302,2.0,2.0,98,0.00,,,0.48,Wunderground v.1.15,2013-05-04 23:40:00,
2013-05-04 18:45:00,51.8,51.3,29.99,NNW,342,1.0,2.0,98,0.00,,,0.48,Wunderground v.1.15,2013-05-04 23:45:00,
2013-05-04 18:50:00,51.8,51.3,29.99,NW,310,0.0,0.0,98,0.00,,,0.48,Wunderground v.1.15,2013-05-04 23:50:00,
2013-05-04 18:55:00,51.8,51.3,29.99,WNW,292,0.0,0.0,98,0.00,,,0.48,Wunderground v.1.15,2013-05-04 23:55:00,
2013-05-04 19:05:00,51.5,51.0,29.99,WNW,298,1.0,1.0,98,0.00,,,0.48,Wunderground v.1.15,2013-05-05 00:05:00,
2013-05-04 19:10:00,51.2,50.7,30.00,WNW,300,1.0,1.0,98,0.00,,,0.48,Wunderground v.1.15,2013-05-05 00:10:00,
2013-05-04 19:15:00,51.1,50.6,30.01,NW,306,0.0,1.0,98,0.80,,,0.53,Wunderground v.1.15,2013-05-05 00:15:00,
2013-05-04 19:25:00,51.1,50.6,30.01,North,355,0.0,0.0,98,0.15,,,0.61,Wunderground v.1.15,2013-05-05 00:25:00,
2013-05-04 19:30:00,51.0,50.5,30.01,NNW,348,0.0,0.0,98,0.17,,,0.62,Wunderground v.1.15,2013-05-05 00:30:00,
2013-05-04 19:35:00,51.0,50.5,30.01,NNW,340,0.0,0.0,98,0.31,,,0.64,Wunderground v.1.15,2013-05-05 00:35:00,
2013-05-04 19:40:00,51.0,50.5,30.01,NW,318,0.0,0.0,98,0.10,,,0.64,Wunderground v.1.15,2013-05-05 00:40:00,
2013-05-04 19:45:00,50.9,50.4,30.00,NW,311,0.0,0.0,98,0.10,,,0.65,Wunderground v.1.15,2013-05-05 00:45:00,
2013-05-04 19:50:00,50.9,50.4,30.00,NW,319,0.0,0.0,98,0.12,,,0.66,Wunderground v.1.15,2013-05-05 00:50:00,
2013-05-04 19:55:00,50.8,50.3,30.00,NW,319,0.0,0.0,98,0.06,,,0.66,Wunderground v.1.15,2013-05-05 00:55:00,
2013-05-04 20:05:00,50.7,50.2,30.01,NW,323,0.0,0.0,98,0.12,,,0.68,Wunderground v.1.15,2013-05-05 01:05:00,
2013-05-04 20:10:00,50.7,50.2,30.01,NW,324,0.0,0.0,98,0.11,,,0.68,Wunderground v.1.15,2013-05-05 01:10:00,
2013-05-04 20:15:00,51.0,50.5,30.01,NW,325,0.0,0.0,98,0.06,,,0.69,Wunderground v.1.15,2013-05-05 01:15:00,
2013-05-04 20:20:00,51.3,50.8,30.01,NNE,17,0.0,0.0,98,0.06,,,0.69,Wunderground v.1.15,2013-05-05 01:20:00,
2013-05-04 20:25:00,51.5,51.0,30.01,North,5,1.0,1.0,98,0.06,,,0.69,Wunderground v.1.15,2013-05-05 01:25:00,
2013-05-04 20:35:00,51.4,50.9,30.02,ENE,69,0.0,0.0,98,0.00,,,0.69,Wunderground v.1.15,2013-05-05 01:35:00,
2013-05-04 20:40:00,51.1,50.6,30.01,NNW,340,0.0,0.0,98,0.00,,,0.69,Wunderground v.1.15,2013-05-05 01:40:00,
2013-05-04 20:45:00,50.8,50.3,30.01,NNW,347,1.0,1.0,98,0.00,,,0.69,Wunderground v.1.15,2013-05-05 01:45:00,
2013-05-04 20:50:00,50.5,50.0,30.01,NNW,345,1.0,1.0,98,0.00,,,0.70,Wunderground v.1.15,2013-05-05 01:50:00,
2013-05-04 21:00:00,49.3,48.5,30.02,NW,326,3.0,3.0,97,0.00,,,0.70,Wunderground v.1.15,2013-05-05 02:00:00,
2013-05-04 21:05:00,48.4,47.6,30.02,NNW,335,2.0,3.0,97,0.00,,,0.70,Wunderground v.1.15,2013-05-05 02:05:00,
2013-05-04 21:10:00,47.4,46.6,30.02,NNW,341,2.0,2.0,97,0.00,,,0.70,Wunderground v.1.15,2013-05-05 02:10:00,
2013-05-04 21:15:00,46.8,46.0,30.02,NNW,339,2.0,2.0,97,0.00,,,0.70,Wunderground v.1.15,2013-05-05 02:15:00,
2013-05-04 21:20:00,46.5,45.7,30.02,NNW,340,1.0,1.0,97,0.00,,,0.70,Wunderground v.1.15,2013-05-05 02:20:00,
2013-05-04 21:25:00,46.3,45.5,30.03,North,9,0.0,1.0,97,0.32,,,0.72,Wunderground v.1.15,2013-05-05 02:25:00,
2013-05-04 21:30:00,46.1,45.3,30.05,ENE,64,0.0,0.0,97,0.34,,,0.76,Wunderground v.1.15,2013-05-05 02:30:00,
2013-05-04 21:35:00,45.9,45.1,30.05,NNW,333,0.0,0.0,97,0.50,,,0.81,Wunderground v.1.15,2013-05-05 02:35:00,
2013-05-04 21:40:00,45.7,44.9,30.03,NNW,344,0.0,0.0,97,0.32,,,0.84,Wunderground v.1.15,2013-05-05 02:40:00,
2013-05-04 21:50:00,45.4,44.6,30.03,North,355,0.0,0.0,97,0.24,,,0.86,Wunderground v.1.15,2013-05-05 02:50:00,
2013-05-04 22:00:00,45.3,44.8,30.03,North,350,0.0,0.0,98,0.08,,,0.87,Wunderground v.1.15,2013-05-05 03:00:00,
2013-05-04 22:05:00,45.3,44.8,30.03,NNW,328,0.0,0.0,98,0.07,,,0.88,Wunderground v.1.15,2013-05-05 03:05:00,
2013-05-04 22:10:00,45.4,44.9,30.03,NNW,327,0.0,0.0,98,0.07,,,0.88,Wunderground v.1.15,2013-05-05 03:10:00,
2013-05-04 22:15:00,45.5,45.0,30.03,NW,323,0.0,0.0,98,0.04,,,0.88,Wunderground v.1.15,2013-05-05 03:15:00,
2013-05-04 22:20:00,45.7,45.2,30.03,NNW,330,1.0,1.0,98,0.00,,,0.88,Wunderground v.1.15,2013-05-05 03:20:00,
2013-05-04 22:25:00,45.7,45.2,30.03,North,5,1.0,1.0,98,0.00,,,0.88,Wunderground v.1.15,2013-05-05 03:25:00,
2013-05-04 22:30:00,45.6,45.1,30.03,NNW,342,1.0,1.0,98,0.00,,,0.88,Wunderground v.1.15,2013-05-05 03:30:00,
2013-05-04 22:35:00,45.5,45.0,30.04,NNW,345,1.0,5.0,98,0.00,,,0.88,Wunderground v.1.15,2013-05-05 03:35:00,
2013-05-04 22:40:00,45.5,45.0,30.04,NNW,336,2.0,2.0,98,0.00,,,0.88,Wunderground v.1.15,2013-05-05 03:40:00,
2013-05-04 22:45:00,45.3,44.8,30.04,NNW,330,2.0,2.0,98,0.00,,,0.88,Wunderground v.1.15,2013-05-05 03:45:00,
2013-05-04 22:55:00,45.0,44.5,30.04,NW,325,1.0,1.0,98,0.00,,,0.88,Wunderground v.1.15,2013-05-05 03:55:00,
2013-05-04 23:05:00,44.7,43.9,30.03,NW,321,1.0,2.0,97,0.00,,,0.88,Wunderground v.1.15,2013-05-05 04:05:00,
2013-05-04 23:10:00,44.5,44.0,30.03,NNW,329,0.0,0.0,98,0.00,,,0.88,Wunderground v.1.15,2013-05-05 04:10:00,
2013-05-04 23:15:00,44.5,44.0,30.03,North,360,1.0,1.0,98,0.00,,,0.88,Wunderground v.1.15,2013-05-05 04:15:00,
2013-05-04 23:20:00,44.4,43.6,30.03,North,360,1.0,1.0,97,0.00,,,0.88,Wunderground v.1.15,2013-05-05 04:20:00,
2013-05-04 23:25:00,44.2,43.4,30.03,North,355,0.0,1.0,97,0.00,,,0.88,Wunderground v.1.15,2013-05-05 04:25:00,
2013-05-04 23:30:00,44.0,43.5,30.03,NNW,333,0.0,0.0,98,0.00,,,0.88,Wunderground v.1.15,2013-05-05 04:30:00,
2013-05-04 23:35:00,43.9,43.1,30.03,NNW,331,1.0,1.0,97,0.00,,,0.88,Wunderground v.1.15,2013-05-05 04:35:00,
2013-05-04 23:45:00,43.8,43.0,30.04,NNW,344,0.0,1.0,97,0.00,,,0.88,Wunderground v.1.15,2013-05-05 04:45:00,
2013-05-04 23:50:00,43.7,42.9,30.04,North,355,0.0,0.0,97,0.00,,,0.88,Wunderground v.1.15,2013-05-05 04:50:00,
2013-05-04 23:55:00,43.7,42.9,30.04,NNW,344,0.0,0.0,97,0.00,,,0.88,Wunderground v.1.15,2013-05-05 04:55:00,